sensor_id;sensor_type;location;lat;lon;timestamp;P1;P2;P0
37709;PMS5003;60223;34.854;-92.408;2023-01-23T00:00:13;3;3;
37709;PMS5003;60223;34.854;-92.408;2023-01-23T00:02:39;3;3;
37709;PMS5003;60223;34.854;-92.408;2023-01-23T00:05:02;3;3;
37709;PMS5003;60223;34.854;-92.408;2023-01-23T00:07:30;2;2;
37709;PMS5003;60223;34.854;-92.408;2023-01-23T00:09:56;4;2;
37709;PMS5003;60223;34.854;-92.408;2023-01-23T00:12:22;4;3;
37709;PMS5003;60223;34.854;-92.408;2023-01-23T00:14:47;3;3;
37709;PMS5003;60223;34.854;-92.408;2023-01-23T00:17:13;3;3;
37709;PMS5003;60223;34.854;-92.408;2023-01-23T00:19:36;4;3;
37709;PMS5003;60223;34.854;-92.408;2023-01-23T00:22:04;3;3;
37709;PMS5003;60223;34.854;-92.408;2023-01-23T00:24:30;3;3;
37709;PMS5003;60223;34.854;-92.408;2023-01-23T00:26:56;3;3;
37709;PMS5003;60223;34.854;-92.408;2023-01-23T00:29:21;2;2;
37709;PMS5003;60223;34.854;-92.408;2023-01-23T00:31:47;2;2;
37709;PMS5003;60223;34.854;-92.408;2023-01-23T00:34:11;1;1;
37709;PMS5003;60223;34.854;-92.408;2023-01-23T00:36:38;2;2;
37709;PMS5003;60223;34.854;-92.408;2023-01-23T00:39:06;2;2;
37709;PMS5003;60223;34.854;-92.408;2023-01-23T00:41:30;3;3;
37709;PMS5003;60223;34.854;-92.408;2023-01-23T00:43:56;3;3;
37709;PMS5003;60223;34.854;-92.408;2023-01-23T00:46:21;2;2;
37709;PMS5003;60223;34.854;-92.408;2023-01-23T00:48:47;2;2;
37709;PMS5003;60223;34.854;-92.408;2023-01-23T00:51:10;3;3;
37709;PMS5003;60223;34.854;-92.408;2023-01-23T00:53:38;2;1;
37709;PMS5003;60223;34.854;-92.408;2023-01-23T00:56:04;2;2;
37709;PMS5003;60223;34.854;-92.408;2023-01-23T00:58:31;2;2;
37709;PMS5003;60223;34.854;-92.408;2023-01-23T01:00:56;2;2;
37709;PMS5003;60223;34.854;-92.408;2023-01-23T01:03:21;4;4;
37709;PMS5003;60223;34.854;-92.408;2023-01-23T01:05:47;1;1;
37709;PMS5003;60223;34.854;-92.408;2023-01-23T01:08:09;2;2;
37709;PMS5003;60223;34.854;-92.408;2023-01-23T01:10:38;2;2;
37709;PMS5003;60223;34.854;-92.408;2023-01-23T01:13:04;2;2;
37709;PMS5003;60223;34.854;-92.408;2023-01-23T01:15:30;2;2;
37709;PMS5003;60223;34.854;-92.408;2023-01-23T01:17:55;3;2;
37709;PMS5003;60223;34.854;-92.408;2023-01-23T01:20:21;3;3;
37709;PMS5003;60223;34.854;-92.408;2023-01-23T01:22:47;2;2;
37709;PMS5003;60223;34.854;-92.408;2023-01-23T01:25:13;3;2;
37709;PMS5003;60223;34.854;-92.408;2023-01-23T01:27:37;2;2;
37709;PMS5003;60223;34.854;-92.408;2023-01-23T01:30:04;2;2;
37709;PMS5003;60223;34.854;-92.408;2023-01-23T01:32:30;2;2;
37709;PMS5003;60223;34.854;-92.408;2023-01-23T01:34:55;2;2;
37709;PMS5003;60223;34.854;-92.408;2023-01-23T01:37:21;2;2;
37709;PMS5003;60223;34.854;-92.408;2023-01-23T01:39:47;0;0;
37709;PMS5003;60223;34.854;-92.408;2023-01-23T01:42:10;5;3;
37709;PMS5003;60223;34.854;-92.408;2023-01-23T01:47:04;2;2;
37709;PMS5003;60223;34.854;-92.408;2023-01-23T01:49:30;3;3;
37709;PMS5003;60223;34.854;-92.408;2023-01-23T01:51:56;2;2;
37709;PMS5003;60223;34.854;-92.408;2023-01-23T01:54:22;2;2;
37709;PMS5003;60223;34.854;-92.408;2023-01-23T01:56:48;2;2;
37709;PMS5003;60223;34.854;-92.408;2023-01-23T01:59:12;3;3;
37709;PMS5003;60223;34.854;-92.408;2023-01-23T02:01:36;3;3;
37709;PMS5003;60223;34.854;-92.408;2023-01-23T02:04:04;2;2;
37709;PMS5003;60223;34.854;-92.408;2023-01-23T02:06:30;2;2;
37709;PMS5003;60223;34.854;-92.408;2023-01-23T02:08:57;1;1;
37709;PMS5003;60223;34.854;-92.408;2023-01-23T02:11:21;2;2;
37709;PMS5003;60223;34.854;-92.408;2023-01-23T02:13:47;3;3;
37709;PMS5003;60223;34.854;-92.408;2023-01-23T02:16:10;2;2;
37709;PMS5003;60223;34.854;-92.408;2023-01-23T02:18:39;2;2;
37709;PMS5003;60223;34.854;-92.408;2023-01-23T02:21:05;1;1;
37709;PMS5003;60223;34.854;-92.408;2023-01-23T02:23:32;2;2;
37709;PMS5003;60223;34.854;-92.408;2023-01-23T02:25:56;1;1;
37709;PMS5003;60223;34.854;-92.408;2023-01-23T02:28:21;2;2;
37709;PMS5003;60223;34.854;-92.408;2023-01-23T02:30:45;3;3;
37709;PMS5003;60223;34.854;-92.408;2023-01-23T02:35:38;2;2;
37709;PMS5003;60223;34.854;-92.408;2023-01-23T02:38:04;2;2;
37709;PMS5003;60223;34.854;-92.408;2023-01-23T02:40:31;3;2;
37709;PMS5003;60223;34.854;-92.408;2023-01-23T02:42:55;5;3;
37709;PMS5003;60223;34.854;-92.408;2023-01-23T02:45:18;1;1;
37709;PMS5003;60223;34.854;-92.408;2023-01-23T02:47:47;1;1;
37709;PMS5003;60223;34.854;-92.408;2023-01-23T02:50:12;3;3;
37709;PMS5003;60223;34.854;-92.408;2023-01-23T02:52:38;2;2;
37709;PMS5003;60223;34.854;-92.408;2023-01-23T02:55:04;2;2;
37709;PMS5003;60223;34.854;-92.408;2023-01-23T02:57:30;4;3;
37709;PMS5003;60223;34.854;-92.408;2023-01-23T02:59:55;2;2;
37709;PMS5003;60223;34.854;-92.408;2023-01-23T03:02:21;3;2;
37709;PMS5003;60223;34.854;-92.408;2023-01-23T03:04:44;2;2;
37709;PMS5003;60223;34.854;-92.408;2023-01-23T03:07:12;6;3;
37709;PMS5003;60223;34.854;-92.408;2023-01-23T03:09:38;2;2;
37709;PMS5003;60223;34.854;-92.408;2023-01-23T03:12:04;2;2;
37709;PMS5003;60223;34.854;-92.408;2023-01-23T03:14:30;3;3;
37709;PMS5003;60223;34.854;-92.408;2023-01-23T03:16:55;3;3;
37709;PMS5003;60223;34.854;-92.408;2023-01-23T03:19:21;3;3;
37709;PMS5003;60223;34.854;-92.408;2023-01-23T03:21:47;2;2;
37709;PMS5003;60223;34.854;-92.408;2023-01-23T03:24:12;2;2;
37709;PMS5003;60223;34.854;-92.408;2023-01-23T03:26:38;2;2;
37709;PMS5003;60223;34.854;-92.408;2023-01-23T03:29:01;1;1;
37709;PMS5003;60223;34.854;-92.408;2023-01-23T03:31:30;1;1;
37709;PMS5003;60223;34.854;-92.408;2023-01-23T03:33:55;4;2;
37709;PMS5003;60223;34.854;-92.408;2023-01-23T03:36:21;2;2;
37709;PMS5003;60223;34.854;-92.408;2023-01-23T03:38:46;2;2;
37709;PMS5003;60223;34.854;-92.408;2023-01-23T03:41:12;2;2;
37709;PMS5003;60223;34.854;-92.408;2023-01-23T03:43:38;4;2;
37709;PMS5003;60223;34.854;-92.408;2023-01-23T03:46:04;2;2;
37709;PMS5003;60223;34.854;-92.408;2023-01-23T03:48:30;2;2;
37709;PMS5003;60223;34.854;-92.408;2023-01-23T03:50:55;3;2;
37709;PMS5003;60223;34.854;-92.408;2023-01-23T03:53:21;2;2;
37709;PMS5003;60223;34.854;-92.408;2023-01-23T03:55:47;2;2;
37709;PMS5003;60223;34.854;-92.408;2023-01-23T03:58:09;2;2;
37709;PMS5003;60223;34.854;-92.408;2023-01-23T04:00:38;3;3;
37709;PMS5003;60223;34.854;-92.408;2023-01-23T04:03:04;2;2;
37709;PMS5003;60223;34.854;-92.408;2023-01-23T04:05:30;2;2;
37709;PMS5003;60223;34.854;-92.408;2023-01-23T04:07:55;3;3;
37709;PMS5003;60223;34.854;-92.408;2023-01-23T04:10:21;1;1;
37709;PMS5003;60223;34.854;-92.408;2023-01-23T04:12:46;3;2;
37709;PMS5003;60223;34.854;-92.408;2023-01-23T04:15:12;2;2;
37709;PMS5003;60223;34.854;-92.408;2023-01-23T04:17:38;1;1;
37709;PMS5003;60223;34.854;-92.408;2023-01-23T04:20:04;2;2;
37709;PMS5003;60223;34.854;-92.408;2023-01-23T04:22:30;2;2;
37709;PMS5003;60223;34.854;-92.408;2023-01-23T04:24:55;2;2;
37709;PMS5003;60223;34.854;-92.408;2023-01-23T04:27:21;4;2;
37709;PMS5003;60223;34.854;-92.408;2023-01-23T04:29:47;3;3;
37709;PMS5003;60223;34.854;-92.408;2023-01-23T04:32:13;2;2;
37709;PMS5003;60223;34.854;-92.408;2023-01-23T04:34:38;1;1;
37709;PMS5003;60223;34.854;-92.408;2023-01-23T04:37:04;2;2;
37709;PMS5003;60223;34.854;-92.408;2023-01-23T04:39:30;3;3;
37709;PMS5003;60223;34.854;-92.408;2023-01-23T04:41:55;2;2;
37709;PMS5003;60223;34.854;-92.408;2023-01-23T04:44:20;1;1;
37709;PMS5003;60223;34.854;-92.408;2023-01-23T04:46:47;2;2;
37709;PMS5003;60223;34.854;-92.408;2023-01-23T04:49:12;1;1;
37709;PMS5003;60223;34.854;-92.408;2023-01-23T04:51:38;3;3;
37709;PMS5003;60223;34.854;-92.408;2023-01-23T04:54:04;2;2;
37709;PMS5003;60223;34.854;-92.408;2023-01-23T04:56:30;2;2;
37709;PMS5003;60223;34.854;-92.408;2023-01-23T04:58:56;1;1;
37709;PMS5003;60223;34.854;-92.408;2023-01-23T05:01:19;2;2;
37709;PMS5003;60223;34.854;-92.408;2023-01-23T05:03:47;2;2;
37709;PMS5003;60223;34.854;-92.408;2023-01-23T05:06:13;3;3;
37709;PMS5003;60223;34.854;-92.408;2023-01-23T05:08:39;3;1;
37709;PMS5003;60223;34.854;-92.408;2023-01-23T05:11:04;1;1;
37709;PMS5003;60223;34.854;-92.408;2023-01-23T05:13:30;3;3;
37709;PMS5003;60223;34.854;-92.408;2023-01-23T05:15:56;2;2;
37709;PMS5003;60223;34.854;-92.408;2023-01-23T05:18:22;2;2;
37709;PMS5003;60223;34.854;-92.408;2023-01-23T05:20:47;3;3;
37709;PMS5003;60223;34.854;-92.408;2023-01-23T05:23:13;3;3;
37709;PMS5003;60223;34.854;-92.408;2023-01-23T05:25:39;2;2;
37709;PMS5003;60223;34.854;-92.408;2023-01-23T05:28:05;2;2;
37709;PMS5003;60223;34.854;-92.408;2023-01-23T05:30:31;3;3;
37709;PMS5003;60223;34.854;-92.408;2023-01-23T05:32:56;3;3;
37709;PMS5003;60223;34.854;-92.408;2023-01-23T05:35:22;4;4;
37709;PMS5003;60223;34.854;-92.408;2023-01-23T05:37:48;2;2;
37709;PMS5003;60223;34.854;-92.408;2023-01-23T05:40:13;4;3;
37709;PMS5003;60223;34.854;-92.408;2023-01-23T05:42:39;4;2;
37709;PMS5003;60223;34.854;-92.408;2023-01-23T05:45:05;2;2;
37709;PMS5003;60223;34.854;-92.408;2023-01-23T05:47:31;1;1;
37709;PMS5003;60223;34.854;-92.408;2023-01-23T05:49:56;3;3;
37709;PMS5003;60223;34.854;-92.408;2023-01-23T05:52:21;2;2;
37709;PMS5003;60223;34.854;-92.408;2023-01-23T05:54:48;2;2;
37709;PMS5003;60223;34.854;-92.408;2023-01-23T05:57:11;2;2;
37709;PMS5003;60223;34.854;-92.408;2023-01-23T05:59:39;3;3;
37709;PMS5003;60223;34.854;-92.408;2023-01-23T06:02:05;3;3;
37709;PMS5003;60223;34.854;-92.408;2023-01-23T06:04:31;1;1;
37709;PMS5003;60223;34.854;-92.408;2023-01-23T06:06:56;3;2;
37709;PMS5003;60223;34.854;-92.408;2023-01-23T06:09:22;3;3;
37709;PMS5003;60223;34.854;-92.408;2023-01-23T06:11:48;2;2;
37709;PMS5003;60223;34.854;-92.408;2023-01-23T06:14:14;3;3;
37709;PMS5003;60223;34.854;-92.408;2023-01-23T06:16:39;3;3;
37709;PMS5003;60223;34.854;-92.408;2023-01-23T06:19:05;4;3;
37709;PMS5003;60223;34.854;-92.408;2023-01-23T06:21:31;5;4;
37709;PMS5003;60223;34.854;-92.408;2023-01-23T06:23:57;3;3;
37709;PMS5003;60223;34.854;-92.408;2023-01-23T06:26:22;2;2;
37709;PMS5003;60223;34.854;-92.408;2023-01-23T06:28:48;4;3;
37709;PMS5003;60223;34.854;-92.408;2023-01-23T06:31:14;1;1;
37709;PMS5003;60223;34.854;-92.408;2023-01-23T06:33:40;2;2;
37709;PMS5003;60223;34.854;-92.408;2023-01-23T06:36:06;3;3;
37709;PMS5003;60223;34.854;-92.408;2023-01-23T06:38:32;4;2;
37709;PMS5003;60223;34.854;-92.408;2023-01-23T06:40:57;2;2;
37709;PMS5003;60223;34.854;-92.408;2023-01-23T06:43:23;3;3;
37709;PMS5003;60223;34.854;-92.408;2023-01-23T06:45:49;3;3;
37709;PMS5003;60223;34.854;-92.408;2023-01-23T06:48:14;3;3;
37709;PMS5003;60223;34.854;-92.408;2023-01-23T06:50:40;3;3;
37709;PMS5003;60223;34.854;-92.408;2023-01-23T06:53:04;6;4;
37709;PMS5003;60223;34.854;-92.408;2023-01-23T06:55:32;2;2;
37709;PMS5003;60223;34.854;-92.408;2023-01-23T06:57:57;3;3;
37709;PMS5003;60223;34.854;-92.408;2023-01-23T07:00:23;3;3;
37709;PMS5003;60223;34.854;-92.408;2023-01-23T07:02:48;2;2;
37709;PMS5003;60223;34.854;-92.408;2023-01-23T07:05:11;2;2;
37709;PMS5003;60223;34.854;-92.408;2023-01-23T07:07:40;2;2;
37709;PMS5003;60223;34.854;-92.408;2023-01-23T07:10:06;2;2;
37709;PMS5003;60223;34.854;-92.408;2023-01-23T07:12:29;3;3;
37709;PMS5003;60223;34.854;-92.408;2023-01-23T07:14:57;3;3;
37709;PMS5003;60223;34.854;-92.408;2023-01-23T07:17:23;3;3;
37709;PMS5003;60223;34.854;-92.408;2023-01-23T07:19:49;2;2;
37709;PMS5003;60223;34.854;-92.408;2023-01-23T07:22:15;2;2;
37709;PMS5003;60223;34.854;-92.408;2023-01-23T07:24:40;6;3;
37709;PMS5003;60223;34.854;-92.408;2023-01-23T07:27:06;3;3;
37709;PMS5003;60223;34.854;-92.408;2023-01-23T07:29:32;3;3;
37709;PMS5003;60223;34.854;-92.408;2023-01-23T07:31:57;3;3;
37709;PMS5003;60223;34.854;-92.408;2023-01-23T07:34:22;5;4;
37709;PMS5003;60223;34.854;-92.408;2023-01-23T07:36:50;2;2;
37709;PMS5003;60223;34.854;-92.408;2023-01-23T07:39:15;3;2;
37709;PMS5003;60223;34.854;-92.408;2023-01-23T07:41:41;3;2;
37709;PMS5003;60223;34.854;-92.408;2023-01-23T07:44:06;3;3;
37709;PMS5003;60223;34.854;-92.408;2023-01-23T07:46:32;1;1;
37709;PMS5003;60223;34.854;-92.408;2023-01-23T07:48:58;4;4;
37709;PMS5003;60223;34.854;-92.408;2023-01-23T07:51:24;2;2;
37709;PMS5003;60223;34.854;-92.408;2023-01-23T07:53:49;2;2;
37709;PMS5003;60223;34.854;-92.408;2023-01-23T07:56:15;4;4;
37709;PMS5003;60223;34.854;-92.408;2023-01-23T07:58:41;2;2;
37709;PMS5003;60223;34.854;-92.408;2023-01-23T08:01:07;2;2;
37709;PMS5003;60223;34.854;-92.408;2023-01-23T08:03:32;2;2;
37709;PMS5003;60223;34.854;-92.408;2023-01-23T08:05:58;3;3;
37709;PMS5003;60223;34.854;-92.408;2023-01-23T08:08:24;3;3;
37709;PMS5003;60223;34.854;-92.408;2023-01-23T08:10:50;3;2;
37709;PMS5003;60223;34.854;-92.408;2023-01-23T08:13:16;4;3;
37709;PMS5003;60223;34.854;-92.408;2023-01-23T08:15:41;2;2;
37709;PMS5003;60223;34.854;-92.408;2023-01-23T08:18:08;3;3;
37709;PMS5003;60223;34.854;-92.408;2023-01-23T08:20:33;2;2;
37709;PMS5003;60223;34.854;-92.408;2023-01-23T08:22:59;3;3;
37709;PMS5003;60223;34.854;-92.408;2023-01-23T08:25:25;2;2;
37709;PMS5003;60223;34.854;-92.408;2023-01-23T08:27:49;4;3;
37709;PMS5003;60223;34.854;-92.408;2023-01-23T08:30:16;4;3;
37709;PMS5003;60223;34.854;-92.408;2023-01-23T08:32:42;3;3;
37709;PMS5003;60223;34.854;-92.408;2023-01-23T08:35:07;2;1;
37709;PMS5003;60223;34.854;-92.408;2023-01-23T08:37:34;3;3;
37709;PMS5003;60223;34.854;-92.408;2023-01-23T08:39:59;3;3;
37709;PMS5003;60223;34.854;-92.408;2023-01-23T08:42:25;3;3;
37709;PMS5003;60223;34.854;-92.408;2023-01-23T08:44:51;4;4;
37709;PMS5003;60223;34.854;-92.408;2023-01-23T08:47:17;2;2;
37709;PMS5003;60223;34.854;-92.408;2023-01-23T08:49:42;2;2;
37709;PMS5003;60223;34.854;-92.408;2023-01-23T08:52:08;2;2;
37709;PMS5003;60223;34.854;-92.408;2023-01-23T08:54:34;2;2;
37709;PMS5003;60223;34.854;-92.408;2023-01-23T08:57:00;2;2;
37709;PMS5003;60223;34.854;-92.408;2023-01-23T08:59:26;2;2;
37709;PMS5003;60223;34.854;-92.408;2023-01-23T09:01:51;2;2;
37709;PMS5003;60223;34.854;-92.408;2023-01-23T09:04:17;3;3;
37709;PMS5003;60223;34.854;-92.408;2023-01-23T09:06:43;3;3;
37709;PMS5003;60223;34.854;-92.408;2023-01-23T09:09:09;2;2;
37709;PMS5003;60223;34.854;-92.408;2023-01-23T09:11:35;2;2;
37709;PMS5003;60223;34.854;-92.408;2023-01-23T09:14:00;3;3;
37709;PMS5003;60223;34.854;-92.408;2023-01-23T09:16:26;2;2;
37709;PMS5003;60223;34.854;-92.408;2023-01-23T09:18:53;2;2;
37709;PMS5003;60223;34.854;-92.408;2023-01-23T09:21:17;2;2;
37709;PMS5003;60223;34.854;-92.408;2023-01-23T09:23:42;3;3;
37709;PMS5003;60223;34.854;-92.408;2023-01-23T09:26:10;3;3;
37709;PMS5003;60223;34.854;-92.408;2023-01-23T09:28:35;3;3;
37709;PMS5003;60223;34.854;-92.408;2023-01-23T09:31:01;2;2;
37709;PMS5003;60223;34.854;-92.408;2023-01-23T09:33:27;3;3;
37709;PMS5003;60223;34.854;-92.408;2023-01-23T09:35:52;2;2;
37709;PMS5003;60223;34.854;-92.408;2023-01-23T09:38:17;3;3;
37709;PMS5003;60223;34.854;-92.408;2023-01-23T09:40:44;1;1;
37709;PMS5003;60223;34.854;-92.408;2023-01-23T09:43:11;2;2;
37709;PMS5003;60223;34.854;-92.408;2023-01-23T09:45:35;2;2;
37709;PMS5003;60223;34.854;-92.408;2023-01-23T09:48:05;2;2;
37709;PMS5003;60223;34.854;-92.408;2023-01-23T09:50:26;2;2;
37709;PMS5003;60223;34.854;-92.408;2023-01-23T09:52:56;2;2;
37709;PMS5003;60223;34.854;-92.408;2023-01-23T09:55:21;1;1;
37709;PMS5003;60223;34.854;-92.408;2023-01-23T09:57:47;2;2;
37709;PMS5003;60223;34.854;-92.408;2023-01-23T10:00:12;3;3;
37709;PMS5003;60223;34.854;-92.408;2023-01-23T10:02:36;4;3;
37709;PMS5003;60223;34.854;-92.408;2023-01-23T10:05:01;2;2;
37709;PMS5003;60223;34.854;-92.408;2023-01-23T10:07:33;2;2;
37709;PMS5003;60223;34.854;-92.408;2023-01-23T10:09:57;2;2;
37709;PMS5003;60223;34.854;-92.408;2023-01-23T10:12:23;2;2;
37709;PMS5003;60223;34.854;-92.408;2023-01-23T10:14:49;3;2;
37709;PMS5003;60223;34.854;-92.408;2023-01-23T10:17:12;2;2;
37709;PMS5003;60223;34.854;-92.408;2023-01-23T10:19:39;2;2;
37709;PMS5003;60223;34.854;-92.408;2023-01-23T10:22:15;2;2;
37709;PMS5003;60223;34.854;-92.408;2023-01-23T10:24:33;1;1;
37709;PMS5003;60223;34.854;-92.408;2023-01-23T10:26:55;2;2;
37709;PMS5003;60223;34.854;-92.408;2023-01-23T10:29:21;3;3;
37709;PMS5003;60223;34.854;-92.408;2023-01-23T10:31:46;3;3;
37709;PMS5003;60223;34.854;-92.408;2023-01-23T10:34:13;2;2;
37709;PMS5003;60223;34.854;-92.408;2023-01-23T10:36:37;1;1;
37709;PMS5003;60223;34.854;-92.408;2023-01-23T10:39:04;2;2;
37709;PMS5003;60223;34.854;-92.408;2023-01-23T10:41:29;2;2;
37709;PMS5003;60223;34.854;-92.408;2023-01-23T10:43:55;3;3;
37709;PMS5003;60223;34.854;-92.408;2023-01-23T10:46:21;2;2;
37709;PMS5003;60223;34.854;-92.408;2023-01-23T10:48:47;2;2;
37709;PMS5003;60223;34.854;-92.408;2023-01-23T10:53:38;3;2;
37709;PMS5003;60223;34.854;-92.408;2023-01-23T10:56:10;1;1;
37709;PMS5003;60223;34.854;-92.408;2023-01-23T10:58:31;2;2;
37709;PMS5003;60223;34.854;-92.408;2023-01-23T11:00:55;2;2;
37709;PMS5003;60223;34.854;-92.408;2023-01-23T11:03:28;2;2;
37709;PMS5003;60223;34.854;-92.408;2023-01-23T11:05:50;3;3;
37709;PMS5003;60223;34.854;-92.408;2023-01-23T11:08:22;2;2;
37709;PMS5003;60223;34.854;-92.408;2023-01-23T11:10:38;2;2;
37709;PMS5003;60223;34.854;-92.408;2023-01-23T11:13:04;2;2;
37709;PMS5003;60223;34.854;-92.408;2023-01-23T11:15:31;2;2;
37709;PMS5003;60223;34.854;-92.408;2023-01-23T11:17:57;2;2;
37709;PMS5003;60223;34.854;-92.408;2023-01-23T11:20:22;1;1;
37709;PMS5003;60223;34.854;-92.408;2023-01-23T11:22:47;2;2;
37709;PMS5003;60223;34.854;-92.408;2023-01-23T11:27:37;2;2;
37709;PMS5003;60223;34.854;-92.408;2023-01-23T11:32:31;2;2;
37709;PMS5003;60223;34.854;-92.408;2023-01-23T11:35:01;2;2;
37709;PMS5003;60223;34.854;-92.408;2023-01-23T11:37:23;3;3;
37709;PMS5003;60223;34.854;-92.408;2023-01-23T11:39:48;2;2;
37709;PMS5003;60223;34.854;-92.408;2023-01-23T11:42:13;4;4;
37709;PMS5003;60223;34.854;-92.408;2023-01-23T11:44:38;3;3;
37709;PMS5003;60223;34.854;-92.408;2023-01-23T11:47:10;3;3;
37709;PMS5003;60223;34.854;-92.408;2023-01-23T11:52:01;3;3;
37709;PMS5003;60223;34.854;-92.408;2023-01-23T11:56:52;4;4;
37709;PMS5003;60223;34.854;-92.408;2023-01-23T11:59:21;2;2;
37709;PMS5003;60223;34.854;-92.408;2023-01-23T12:01:39;4;3;
37709;PMS5003;60223;34.854;-92.408;2023-01-23T12:04:10;6;4;
37709;PMS5003;60223;34.854;-92.408;2023-01-23T12:06:38;4;4;
37709;PMS5003;60223;34.854;-92.408;2023-01-23T12:08:58;5;5;
37709;PMS5003;60223;34.854;-92.408;2023-01-23T12:11:22;5;5;
37709;PMS5003;60223;34.854;-92.408;2023-01-23T12:13:52;7;6;
37709;PMS5003;60223;34.854;-92.408;2023-01-23T12:16:16;7;7;
37709;PMS5003;60223;34.854;-92.408;2023-01-23T12:18:41;4;4;
37709;PMS5003;60223;34.854;-92.408;2023-01-23T12:21:07;5;5;
37709;PMS5003;60223;34.854;-92.408;2023-01-23T12:23:38;4;4;
37709;PMS5003;60223;34.854;-92.408;2023-01-23T12:25:57;5;5;
37709;PMS5003;60223;34.854;-92.408;2023-01-23T12:28:27;6;6;
37709;PMS5003;60223;34.854;-92.408;2023-01-23T12:30:54;6;6;
37709;PMS5003;60223;34.854;-92.408;2023-01-23T12:33:19;5;5;
37709;PMS5003;60223;34.854;-92.408;2023-01-23T12:35:42;5;5;
37709;PMS5003;60223;34.854;-92.408;2023-01-23T12:38:08;8;8;
37709;PMS5003;60223;34.854;-92.408;2023-01-23T12:40:29;8;8;
37709;PMS5003;60223;34.854;-92.408;2023-01-23T12:42:59;6;6;
37709;PMS5003;60223;34.854;-92.408;2023-01-23T12:45:24;6;6;
37709;PMS5003;60223;34.854;-92.408;2023-01-23T12:47:50;6;6;
37709;PMS5003;60223;34.854;-92.408;2023-01-23T12:50:14;5;5;
37709;PMS5003;60223;34.854;-92.408;2023-01-23T12:52:41;6;6;
37709;PMS5003;60223;34.854;-92.408;2023-01-23T12:55:10;8;8;
37709;PMS5003;60223;34.854;-92.408;2023-01-23T12:57:31;5;5;
37709;PMS5003;60223;34.854;-92.408;2023-01-23T12:59:57;5;5;
37709;PMS5003;60223;34.854;-92.408;2023-01-23T13:02:28;8;8;
37709;PMS5003;60223;34.854;-92.408;2023-01-23T13:04:49;7;7;
37709;PMS5003;60223;34.854;-92.408;2023-01-23T13:07:16;6;6;
37709;PMS5003;60223;34.854;-92.408;2023-01-23T13:09:44;5;5;
37709;PMS5003;60223;34.854;-92.408;2023-01-23T13:12:04;4;4;
37709;PMS5003;60223;34.854;-92.408;2023-01-23T13:14:37;5;5;
37709;PMS5003;60223;34.854;-92.408;2023-01-23T13:16:57;5;5;
37709;PMS5003;60223;34.854;-92.408;2023-01-23T13:19:23;6;6;
37709;PMS5003;60223;34.854;-92.408;2023-01-23T13:26:39;7;6;
37709;PMS5003;60223;34.854;-92.408;2023-01-23T13:29:03;5;5;
37709;PMS5003;60223;34.854;-92.408;2023-01-23T13:31:33;6;6;
37709;PMS5003;60223;34.854;-92.408;2023-01-23T13:33:57;6;6;
37709;PMS5003;60223;34.854;-92.408;2023-01-23T13:36:23;7;7;
37709;PMS5003;60223;34.854;-92.408;2023-01-23T13:43:40;8;8;
37709;PMS5003;60223;34.854;-92.408;2023-01-23T13:46:05;8;8;
37709;PMS5003;60223;34.854;-92.408;2023-01-23T13:50:58;6;6;
37709;PMS5003;60223;34.854;-92.408;2023-01-23T13:53:23;4;4;
37709;PMS5003;60223;34.854;-92.408;2023-01-23T13:55:48;5;5;
37709;PMS5003;60223;34.854;-92.408;2023-01-23T13:58:14;5;5;
37709;PMS5003;60223;34.854;-92.408;2023-01-23T14:00:40;6;6;
37709;PMS5003;60223;34.854;-92.408;2023-01-23T14:05:32;7;7;
37709;PMS5003;60223;34.854;-92.408;2023-01-23T14:07:59;8;8;
37709;PMS5003;60223;34.854;-92.408;2023-01-23T14:10:23;6;6;
37709;PMS5003;60223;34.854;-92.408;2023-01-23T14:12:48;5;5;
37709;PMS5003;60223;34.854;-92.408;2023-01-23T14:15:17;7;7;
37709;PMS5003;60223;34.854;-92.408;2023-01-23T14:17:39;8;8;
37709;PMS5003;60223;34.854;-92.408;2023-01-23T14:20:04;7;6;
37709;PMS5003;60223;34.854;-92.408;2023-01-23T14:22:30;7;6;
37709;PMS5003;60223;34.854;-92.408;2023-01-23T14:24:56;9;7;
37709;PMS5003;60223;34.854;-92.408;2023-01-23T14:27:27;6;6;
37709;PMS5003;60223;34.854;-92.408;2023-01-23T14:34:39;6;6;
37709;PMS5003;60223;34.854;-92.408;2023-01-23T14:37:05;15;12;
37709;PMS5003;60223;34.854;-92.408;2023-01-23T14:39:30;8;8;
37709;PMS5003;60223;34.854;-92.408;2023-01-23T14:41:55;11;9;
37709;PMS5003;60223;34.854;-92.408;2023-01-23T14:44:22;8;8;
37709;PMS5003;60223;34.854;-92.408;2023-01-23T14:46:49;10;9;
37709;PMS5003;60223;34.854;-92.408;2023-01-23T14:49:13;20;17;
37709;PMS5003;60223;34.854;-92.408;2023-01-23T14:51:36;12;9;
37709;PMS5003;60223;34.854;-92.408;2023-01-23T14:54:01;9;9;
37709;PMS5003;60223;34.854;-92.408;2023-01-23T14:56:30;9;8;
37709;PMS5003;60223;34.854;-92.408;2023-01-23T14:58:55;7;7;
37709;PMS5003;60223;34.854;-92.408;2023-01-23T15:01:19;9;7;
37709;PMS5003;60223;34.854;-92.408;2023-01-23T15:06:13;14;9;
37709;PMS5003;60223;34.854;-92.408;2023-01-23T15:08:36;6;6;
37709;PMS5003;60223;34.854;-92.408;2023-01-23T15:11:02;10;8;
37709;PMS5003;60223;34.854;-92.408;2023-01-23T15:13:26;9;9;
37709;PMS5003;60223;34.854;-92.408;2023-01-23T15:15:54;7;5;
37709;PMS5003;60223;34.854;-92.408;2023-01-23T15:18:20;8;7;
37709;PMS5003;60223;34.854;-92.408;2023-01-23T15:23:14;10;9;
37709;PMS5003;60223;34.854;-92.408;2023-01-23T15:25:36;6;6;
37709;PMS5003;60223;34.854;-92.408;2023-01-23T15:27:59;8;8;
37709;PMS5003;60223;34.854;-92.408;2023-01-23T15:30:29;7;7;
37709;PMS5003;60223;34.854;-92.408;2023-01-23T15:32:53;9;8;
37709;PMS5003;60223;34.854;-92.408;2023-01-23T15:35:18;6;6;
37709;PMS5003;60223;34.854;-92.408;2023-01-23T15:37:45;10;7;
37709;PMS5003;60223;34.854;-92.408;2023-01-23T15:40:13;8;8;
37709;PMS5003;60223;34.854;-92.408;2023-01-23T15:42:34;10;10;
37709;PMS5003;60223;34.854;-92.408;2023-01-23T15:45:01;14;14;
37709;PMS5003;60223;34.854;-92.408;2023-01-23T15:47:26;16;13;
37709;PMS5003;60223;34.854;-92.408;2023-01-23T15:49:52;9;8;
37709;PMS5003;60223;34.854;-92.408;2023-01-23T15:52:19;9;6;
37709;PMS5003;60223;34.854;-92.408;2023-01-23T15:54:43;10;9;
37709;PMS5003;60223;34.854;-92.408;2023-01-23T15:57:08;9;8;
37709;PMS5003;60223;34.854;-92.408;2023-01-23T15:59:35;6;6;
37709;PMS5003;60223;34.854;-92.408;2023-01-23T16:02:00;8;8;
37709;PMS5003;60223;34.854;-92.408;2023-01-23T16:04:26;9;6;
37709;PMS5003;60223;34.854;-92.408;2023-01-23T16:06:52;7;7;
37709;PMS5003;60223;34.854;-92.408;2023-01-23T16:09:20;6;6;
37709;PMS5003;60223;34.854;-92.408;2023-01-23T16:11:40;9;7;
37709;PMS5003;60223;34.854;-92.408;2023-01-23T16:14:10;9;7;
37709;PMS5003;60223;34.854;-92.408;2023-01-23T16:16:35;7;7;
37709;PMS5003;60223;34.854;-92.408;2023-01-23T16:19:00;5;5;
37709;PMS5003;60223;34.854;-92.408;2023-01-23T16:31:08;7;7;
37709;PMS5003;60223;34.854;-92.408;2023-01-23T16:33:34;10;9;
37709;PMS5003;60223;34.854;-92.408;2023-01-23T16:36:00;9;6;
37709;PMS5003;60223;34.854;-92.408;2023-01-23T16:38:24;7;5;
37709;PMS5003;60223;34.854;-92.408;2023-01-23T16:40:51;8;8;
37709;PMS5003;60223;34.854;-92.408;2023-01-23T16:45:39;9;5;
37709;PMS5003;60223;34.854;-92.408;2023-01-23T16:48:07;9;8;
37709;PMS5003;60223;34.854;-92.408;2023-01-23T16:50:34;7;6;
37709;PMS5003;60223;34.854;-92.408;2023-01-23T16:53:03;6;5;
37709;PMS5003;60223;34.854;-92.408;2023-01-23T16:55:26;8;7;
37709;PMS5003;60223;34.854;-92.408;2023-01-23T16:57:51;7;6;